Time;durP1;ratioP1;P1;durP2;ratioP2;P2;SDS_P1;SDS_P2;PMS_P1;PMS_P2;Temp;Humidity;BMP_temperature;BMP_pressure;BME280_temperature;BME280_humidity;BME280_pressure;Samples;Min_cycle;Max_cycle;Signal;HPM_P1;HPM_P2
2022/05/06 00:01:04;;;;;;;16.70;12.10;;;;;;;14.70;59.62;100533.77;130384;1266;108729;-78
2022/05/06 00:04:10;;;;;;;13.30;11.50;;;;;;;14.71;59.43;100533.79;130359;1267;107669;-77
2022/05/06 00:07:15;;;;;;;14.00;11.90;;;;;;;14.79;59.56;100533.06;130334;1267;108676;-77
2022/05/06 00:10:21;;;;;;;14.10;11.30;;;;;;;14.83;59.47;100536.54;130381;1267;108736;-76
2022/05/06 00:13:26;;;;;;;12.80;11.30;;;;;;;14.86;59.32;100537.47;130407;1267;108130;-77
2022/05/06 00:16:32;;;;;;;14.10;11.60;;;;;;;14.88;59.28;100542.39;130349;1267;107306;-77
2022/05/06 00:19:37;;;;;;;14.70;10.90;;;;;;;14.90;59.33;100544.70;130355;1267;108695;-77
2022/05/06 00:22:43;;;;;;;12.20;10.10;;;;;;;14.89;59.37;100543.52;130384;1266;108668;-76
2022/05/06 00:25:49;;;;;;;11.60;10.40;;;;;;;14.85;59.66;100547.86;130329;1267;108634;-76
2022/05/06 00:28:55;;;;;;;14.30;10.10;;;;;;;14.83;59.77;100548.05;130337;1267;108690;-76
2022/05/06 00:32:02;;;;;;;12.50;9.60;;;;;;;14.81;59.51;100551.15;130353;1266;107565;-76
2022/05/06 00:35:09;;;;;;;10.90;9.70;;;;;;;14.77;59.76;100552.34;131181;1267;107734;-78
2022/05/06 00:38:16;;;;;;;12.20;10.20;;;;;;;14.71;59.76;100553.34;131140;1267;108821;-77
2022/05/06 00:41:21;;;;;;;9.90;8.90;;;;;;;14.66;60.04;100551.20;131003;1267;108655;-78
2022/05/06 00:44:27;;;;;;;10.20;8.00;;;;;;;14.59;60.02;100554.92;130850;1267;108934;-76
2022/05/06 00:47:35;;;;;;;10.50;8.60;;;;;;;14.53;60.10;100557.98;130344;1268;108703;-77
2022/05/06 00:50:41;;;;;;;8.70;7.30;;;;;;;14.47;60.19;100563.59;130337;1267;108840;-77
2022/05/06 00:53:47;;;;;;;9.70;8.10;;;;;;;14.42;60.34;100565.29;130337;1267;108903;-77
2022/05/06 00:56:55;;;;;;;9.70;8.10;;;;;;;14.40;60.45;100565.53;130322;1267;107751;-78
2022/05/06 01:00:18;;;;;;;13.30;9.00;;;;;;;14.39;60.49;100569.02;130298;1267;108810;-75
2022/05/06 01:03:24;;;;;;;11.70;9.20;;;;;;;14.38;60.56;100566.41;130391;1267;108753;-75
2022/05/06 01:06:29;;;;;;;9.90;8.90;;;;;;;14.36;60.62;100569.70;130246;1267;108659;-77
2022/05/06 01:09:36;;;;;;;10.80;8.40;;;;;;;14.33;60.68;100572.69;130357;1267;107481;-76
2022/05/06 01:12:42;;;;;;;11.10;9.00;;;;;;;14.28;60.88;100573.79;130375;1267;108671;-81
2022/05/06 01:15:57;;;;;;;10.10;8.90;;;;;;;14.24;60.94;100575.52;130714;1267;108907;-81
2022/05/06 01:19:19;;;;;;;11.20;8.70;;;;;;;14.20;61.01;100578.43;130343;1267;107725;-75
2022/05/06 01:22:26;;;;;;;11.60;10.10;;;;;;;14.19;61.06;100579.89;130326;1266;108828;-75
2022/05/06 01:25:31;;;;;;;17.50;13.10;;;;;;;14.17;60.94;100582.04;130444;1267;108800;-77
2022/05/06 01:28:39;;;;;;;16.70;14.30;;;;;;;14.16;61.20;100580.38;130767;1267;107407;-78
2022/05/06 01:31:45;;;;;;;12.70;10.50;;;;;;;14.14;61.17;100578.38;130397;1266;109079;-75
2022/05/06 01:34:55;;;;;;;12.80;10.90;;;;;;;14.13;61.30;100574.31;130319;1268;108660;-75
2022/05/06 01:38:04;;;;;;;12.20;9.40;;;;;;;14.12;61.46;100575.39;130357;1267;108715;-78
2022/05/06 01:41:20;;;;;;;11.00;8.60;;;;;;;14.12;61.64;100578.43;130465;1266;108895;-76
2022/05/06 01:44:38;;;;;;;12.80;9.40;;;;;;;14.13;61.61;100579.88;130250;1268;108853;-72
2022/05/06 01:47:47;;;;;;;13.10;9.70;;;;;;;14.15;61.71;100584.15;130386;1267;108708;-72
2022/05/06 01:51:00;;;;;;;10.90;9.10;;;;;;;14.19;61.71;100583.64;130313;1267;109013;-72
2022/05/06 01:54:08;;;;;;;11.10;9.30;;;;;;;14.20;61.83;100591.48;130294;1267;108796;-74
2022/05/06 01:57:15;;;;;;;13.20;9.90;;;;;;;14.21;61.92;100589.03;130359;1267;108713;-76
2022/05/06 02:00:22;;;;;;;12.70;9.40;;;;;;;14.21;61.92;100585.55;130371;1267;108689;-74
2022/05/06 02:06:52;;;;;;;12.20;8.90;;;;;;;14.17;62.17;100586.11;130320;1268;108767;-74
2022/05/06 02:10:00;;;;;;;10.80;9.20;;;;;;;14.14;62.16;100588.88;130305;1268;108751;-75
2022/05/06 02:13:10;;;;;;;10.00;9.00;;;;;;;14.12;62.18;100585.14;130381;1267;108855;-75
2022/05/06 02:16:48;;;;;;;10.30;8.80;;;;;;;14.08;62.35;100584.65;130345;1267;108998;-78
2022/05/06 02:20:14;;;;;;;11.70;9.50;;;;;;;14.05;62.53;100588.53;130356;1267;108789;-78
2022/05/06 02:23:54;;;;;;;10.10;8.20;;;;;;;14.01;62.54;100590.34;130466;1267;108892;-81
2022/05/06 02:27:14;;;;;;;10.70;8.40;;;;;;;14.00;62.54;100595.45;130720;1268;107938;-85
2022/05/06 02:33:53;;;;;;;13.50;10.80;;;;;;;14.04;62.87;100596.98;130385;1268;108877;-78
2022/05/06 02:37:02;;;;;;;16.20;12.20;;;;;;;14.08;62.84;100596.92;130395;1266;108669;-81
2022/05/06 02:40:23;;;;;;;15.70;11.30;;;;;;;14.10;62.83;100594.14;130654;1268;108817;-81
2022/05/06 02:43:30;;;;;;;14.20;11.70;;;;;;;14.13;62.95;100596.77;130516;1268;108848;-79
2022/05/06 02:46:35;;;;;;;14.20;11.20;;;;;;;14.11;63.00;100598.53;130370;1268;107799;-80
2022/05/06 02:49:41;;;;;;;15.40;12.20;;;;;;;14.10;62.93;100599.87;130386;1268;108873;-79
2022/05/06 02:52:50;;;;;;;14.30;10.90;;;;;;;14.10;63.10;100601.55;130329;1267;108733;-81
2022/05/06 02:55:56;;;;;;;17.10;13.40;;;;;;;14.08;63.35;100604.84;130452;1268;108836;-82
2022/05/06 02:59:04;;;;;;;17.10;14.30;;;;;;;13.98;63.75;100601.55;130453;1268;108683;-80
2022/05/06 03:02:12;;;;;;;18.80;13.60;;;;;;;13.87;65.05;100606.20;130416;1268;108907;-80
2022/05/06 03:05:18;;;;;;;17.90;13.10;;;;;;;13.72;65.36;100610.80;130360;1268;108864;-78
2022/05/06 03:08:24;;;;;;;18.00;13.50;;;;;;;13.68;64.88;100616.83;130328;1268;108632;-78
2022/05/06 03:11:29;;;;;;;18.40;15.30;;;;;;;13.70;65.14;100626.46;130397;1267;109050;-81
2022/05/06 03:14:40;;;;;;;18.60;14.80;;;;;;;13.68;66.34;100627.52;130435;1267;108845;-74
2022/05/06 03:18:00;;;;;;;20.20;16.20;;;;;;;13.62;66.27;100623.18;130751;1267;109063;-84
2022/05/06 03:21:06;;;;;;;18.90;16.40;;;;;;;13.59;67.03;100624.98;130357;1268;108833;-78
2022/05/06 03:24:11;;;;;;;18.80;15.30;;;;;;;13.53;66.70;100627.35;130371;1268;108705;-78
2022/05/06 03:30:44;;;;;;;20.10;15.30;;;;;;;13.51;67.02;100629.34;130261;1268;108633;-73
2022/05/06 03:34:06;;;;;;;19.10;16.30;;;;;;;13.53;67.43;100631.58;130346;1268;108865;-78
2022/05/06 03:37:17;;;;;;;20.40;17.40;;;;;;;13.52;69.18;100633.75;130477;1268;108721;-82
2022/05/06 03:40:24;;;;;;;20.20;17.80;;;;;;;13.45;67.84;100631.40;131108;1268;108872;-77
2022/05/06 03:43:32;;;;;;;19.80;17.00;;;;;;;13.45;68.80;100635.77;130532;1268;108671;-80
2022/05/06 03:46:45;;;;;;;19.70;16.90;;;;;;;13.41;69.52;100633.28;129807;1268;527297;-77
2022/05/06 03:51:20;;;;;;;21.20;17.30;;;;;;;13.38;69.18;100633.27;130531;1268;108667;-77
2022/05/06 03:53:18;;;;;;;20.00;17.40;;;;;;;13.34;70.39;100639.27;130417;1268;109193;-77
2022/05/06 03:56:27;;;;;;;22.40;19.00;;;;;;;13.32;70.29;100642.21;130340;1268;108746;-78
2022/05/06 03:59:34;;;;;;;22.60;17.60;;;;;;;13.30;69.85;100647.08;130432;1268;108673;-76
2022/05/06 04:02:46;;;;;;;21.10;16.60;;;;;;;13.30;69.56;100655.98;130412;1268;108817;-78
2022/05/06 04:05:56;;;;;;;21.90;17.50;;;;;;;13.28;71.73;100659.03;130443;1268;108848;-77
2022/05/06 04:09:02;;;;;;;20.00;17.50;;;;;;;13.23;71.01;100660.16;130324;1268;109258;-75
2022/05/06 04:12:11;;;;;;;21.80;17.80;;;;;;;13.19;72.22;100662.02;130170;1268;108622;-76
2022/05/06 04:15:21;;;;;;;21.90;19.00;;;;;;;13.15;72.25;100667.34;130325;1268;107686;-75
2022/05/06 04:18:27;;;;;;;24.40;19.30;;;;;;;13.11;72.53;100666.34;130480;1268;108939;-77
2022/05/06 04:24:57;;;;;;;21.30;15.80;;;;;;;13.13;70.95;100674.33;130417;1268;108837;-76
2022/05/06 04:28:04;;;;;;;21.60;17.40;;;;;;;13.24;70.59;100679.30;130342;1268;108744;-77
2022/05/06 04:31:11;;;;;;;21.70;17.50;;;;;;;13.33;70.90;100685.85;130326;1267;107687;-78
2022/05/06 04:34:19;;;;;;;20.50;17.80;;;;;;;13.35;72.36;100686.26;130347;1267;108790;-80
2022/05/06 04:37:25;;;;;;;22.30;18.40;;;;;;;13.32;71.49;100686.69;130306;1267;108682;-76
2022/05/06 04:40:33;;;;;;;22.70;18.30;;;;;;;13.29;71.73;100691.27;130310;1267;108984;-75
2022/05/06 04:43:40;;;;;;;20.20;16.70;;;;;;;13.27;72.41;100690.77;130398;1267;108845;-77
2022/05/06 04:46:46;;;;;;;22.20;16.90;;;;;;;13.28;72.48;100695.67;130409;1267;108677;-76
2022/05/06 04:49:53;;;;;;;21.60;18.60;;;;;;;13.36;72.28;100693.10;130348;1267;108840;-78
2022/05/06 04:52:59;;;;;;;22.10;19.20;;;;;;;13.43;72.21;100700.77;130522;1267;108747;-78
2022/05/06 04:56:06;;;;;;;27.90;20.60;;;;;;;13.51;72.33;100705.33;130338;1267;108756;-75
2022/05/06 04:59:15;;;;;;;23.00;19.30;;;;;;;13.52;72.57;100709.29;130386;1267;108877;-76
2022/05/06 05:02:27;;;;;;;23.10;18.70;;;;;;;13.58;72.63;100711.95;130402;1267;108944;-76
2022/05/06 05:05:33;;;;;;;22.90;18.50;;;;;;;13.63;73.10;100712.30;130349;1267;108936;-74
2022/05/06 05:08:39;;;;;;;24.50;20.60;;;;;;;13.66;73.42;100716.17;130331;1267;108979;-75
2022/05/06 05:11:45;;;;;;;26.60;20.80;;;;;;;13.66;72.61;100716.70;130925;1267;108902;-78
2022/05/06 05:14:56;;;;;;;27.10;22.80;;;;;;;13.75;72.63;100725.14;130905;1267;108688;-77
2022/05/06 05:18:06;;;;;;;24.70;20.40;;;;;;;13.75;72.45;100727.44;130496;1267;108744;-70
2022/05/06 05:21:13;;;;;;;22.90;19.50;;;;;;;13.83;71.69;100729.27;130311;1268;109046;-73
2022/05/06 05:24:19;;;;;;;24.50;20.70;;;;;;;13.95;71.71;100733.60;131000;1267;108753;-71
2022/05/06 05:27:26;;;;;;;26.10;21.30;;;;;;;13.95;72.13;100739.10;130496;1267;107759;-72
2022/05/06 05:30:34;;;;;;;24.80;21.60;;;;;;;13.84;72.66;100742.18;130593;1267;108588;-75
2022/05/06 05:33:40;;;;;;;25.90;21.30;;;;;;;13.75;72.52;100741.42;130339;1267;109036;-71
2022/05/06 05:36:46;;;;;;;23.90;20.70;;;;;;;13.74;72.88;100743.98;130499;1266;108783;-70
2022/05/06 05:39:52;;;;;;;26.00;20.70;;;;;;;13.74;73.27;100741.69;130320;1267;108803;-70
2022/05/06 05:42:58;;;;;;;26.10;21.40;;;;;;;13.77;73.01;100736.92;130455;1267;108876;-77
2022/05/06 05:49:28;;;;;;;26.10;23.30;;;;;;;13.89;72.95;100735.43;130399;1267;108960;-76
2022/05/06 05:52:35;;;;;;;24.80;22.10;;;;;;;13.97;72.74;100736.73;130243;1268;108865;-78
2022/05/06 05:55:41;;;;;;;28.10;21.90;;;;;;;14.10;72.69;100739.08;130441;1267;108928;-76
2022/05/06 05:58:51;;;;;;;25.30;21.40;;;;;;;14.18;72.59;100737.21;130268;1267;108955;-77
2022/05/06 06:02:00;;;;;;;25.90;21.90;;;;;;;14.25;72.71;100737.50;130518;1267;108854;-75
2022/05/06 06:05:08;;;;;;;28.30;21.90;;;;;;;14.46;72.28;100739.51;130482;1267;108927;-74
2022/05/06 06:08:15;;;;;;;27.20;23.60;;;;;;;14.77;72.33;100739.47;130444;1266;108749;-75
2022/05/06 06:11:21;;;;;;;28.10;23.60;;;;;;;14.99;72.17;100744.16;130417;1267;108794;-76
2022/05/06 06:14:29;;;;;;;26.30;23.10;;;;;;;15.07;71.89;100739.52;130403;1267;108884;-77
2022/05/06 06:17:36;;;;;;;23.10;20.30;;;;;;;15.10;71.53;100738.83;130453;1267;108637;-77
2022/05/06 06:20:42;;;;;;;26.40;20.20;;;;;;;15.34;71.09;100740.86;130371;1267;108722;-70
2022/05/06 06:23:48;;;;;;;23.50;20.90;;;;;;;15.63;70.48;100741.16;130303;1267;108641;-76
2022/05/06 06:26:53;;;;;;;22.40;20.00;;;;;;;15.78;69.72;100745.34;130530;1267;107633;-73
2022/05/06 06:30:03;;;;;;;22.70;19.90;;;;;;;16.03;69.96;100751.51;130485;1267;108694;-76
2022/05/06 06:33:12;;;;;;;24.50;21.80;;;;;;;16.22;68.96;100755.06;130362;1267;108681;-75
2022/05/06 06:36:18;;;;;;;25.30;22.10;;;;;;;16.10;68.80;100760.58;130388;1267;108952;-79
2022/05/06 06:39:25;;;;;;;25.20;21.20;;;;;;;15.83;68.92;100758.30;130356;1267;108969;-78
2022/05/06 06:42:31;;;;;;;24.40;21.80;;;;;;;15.60;68.84;100757.82;130522;1267;108669;-75
2022/05/06 06:45:50;;;;;;;23.90;20.60;;;;;;;15.51;69.52;100764.04;130386;1267;109005;-79
2022/05/06 06:49:16;;;;;;;22.40;20.00;;;;;;;15.45;69.27;100764.55;130402;1267;108793;-75
2022/05/06 06:52:38;;;;;;;26.00;20.80;;;;;;;15.40;69.32;100764.24;130465;1267;108736;-77
2022/05/06 06:55:44;;;;;;;26.60;22.90;;;;;;;15.39;69.40;100764.67;130368;1267;108850;-76
2022/05/06 06:58:49;;;;;;;25.90;23.10;;;;;;;15.27;69.73;100764.17;130351;1267;108609;-78
2022/05/06 07:01:55;;;;;;;25.30;22.40;;;;;;;15.12;70.00;100765.52;130385;1266;108742;-76
2022/05/06 07:05:00;;;;;;;26.70;21.50;;;;;;;15.08;70.10;100768.27;130322;1267;108671;-77
2022/05/06 07:14:54;;;;;;;31.70;25.60;;;;;;;15.64;68.97;100769.88;130308;1267;108754;-75
2022/05/06 07:18:00;;;;;;;26.50;23.40;;;;;;;15.83;69.10;100769.44;130410;1267;108641;-75
2022/05/06 07:21:05;;;;;;;28.20;23.10;;;;;;;15.80;68.37;100776.17;130338;1267;108858;-75
2022/05/06 07:24:11;;;;;;;25.20;22.40;;;;;;;15.79;68.68;100776.69;130360;1266;108836;-75
2022/05/06 07:27:17;;;;;;;26.10;21.10;;;;;;;15.92;68.48;100786.15;130306;1267;108864;-75
2022/05/06 07:30:23;;;;;;;23.70;20.60;;;;;;;16.00;68.60;100783.25;130355;1267;108411;-75
2022/05/06 07:33:29;;;;;;;27.20;24.30;;;;;;;16.03;67.77;100789.16;130291;1267;109233;-74
2022/05/06 07:36:35;;;;;;;41.60;36.90;;;;;;;15.94;67.59;100790.62;130253;1267;108662;-75
2022/05/06 07:39:40;;;;;;;40.20;35.80;;;;;;;15.93;67.90;100789.98;130299;1267;108750;-75
2022/05/06 07:42:50;;;;;;;41.60;37.10;;;;;;;16.01;68.15;100789.98;130293;1267;108843;-76
2022/05/06 07:45:56;;;;;;;21.10;18.60;;;;;;;16.28;67.87;100786.64;130323;1267;108880;-75
2022/05/06 07:49:02;;;;;;;16.70;14.20;;;;;;;16.69;67.92;100786.59;130280;1267;108621;-75
2022/05/06 07:52:08;;;;;;;43.60;28.50;;;;;;;17.04;67.59;100783.77;130296;1266;108578;-75
2022/05/06 07:55:15;;;;;;;18.10;15.20;;;;;;;17.19;66.34;100787.13;130278;1267;108760;-75
2022/05/06 07:58:20;;;;;;;16.80;14.70;;;;;;;17.57;66.97;100785.20;130342;1267;108892;-75
2022/05/06 08:04:48;;;;;;;29.50;24.90;;;;;;;17.79;64.12;100786.16;130288;1267;108697;-75
2022/05/06 08:07:54;;;;;;;22.30;20.00;;;;;;;17.54;64.16;100797.89;130353;1267;108768;-75
2022/05/06 08:10:59;;;;;;;26.90;23.80;;;;;;;17.46;65.80;100802.85;130334;1267;108760;-74
2022/05/06 08:14:04;;;;;;;31.60;26.50;;;;;;;17.69;63.72;100800.05;130298;1267;107812;-76
2022/05/06 08:17:10;;;;;;;31.70;27.60;;;;;;;17.61;63.70;100796.46;130279;1267;109116;-76
2022/05/06 08:20:16;;;;;;;31.40;26.50;;;;;;;17.67;64.12;100791.36;130297;1267;108838;-76
2022/05/06 08:23:22;;;;;;;28.10;24.70;;;;;;;17.73;64.35;100791.15;130238;1267;108727;-74
2022/05/06 08:26:28;;;;;;;32.20;28.80;;;;;;;17.98;64.58;100793.83;130374;1267;108553;-76
2022/05/06 08:29:35;;;;;;;30.80;27.20;;;;;;;18.26;63.21;100796.12;130363;1267;108748;-76
2022/05/06 08:32:41;;;;;;;30.60;27.30;;;;;;;18.29;62.70;100796.14;130171;1267;108912;-75
2022/05/06 08:35:47;;;;;;;58.20;35.70;;;;;;;18.17;61.70;100798.58;130278;1267;108859;-76
2022/05/06 08:38:52;;;;;;;31.60;26.50;;;;;;;18.15;62.19;100800.14;130263;1267;108759;-75
2022/05/06 08:42:00;;;;;;;29.40;24.20;;;;;;;18.01;63.10;100795.77;130297;1267;108680;-76
2022/05/06 08:51:55;;;;;;;32.60;29.10;;;;;;;18.15;60.90;100806.41;130226;1267;108824;-76
2022/05/06 08:55:02;;;;;;;26.50;22.80;;;;;;;18.01;61.33;100809.09;130312;1267;108769;-76
2022/05/06 08:58:09;;;;;;;23.60;20.90;;;;;;;17.99;61.38;100814.77;130350;1267;108695;-76
2022/05/06 09:01:17;;;;;;;22.80;20.40;;;;;;;17.80;61.39;100819.96;130260;1267;108872;-76
2022/05/06 09:04:23;;;;;;;23.20;20.70;;;;;;;17.66;61.59;100818.23;130314;1267;108651;-75
2022/05/06 09:07:28;;;;;;;23.70;20.10;;;;;;;17.41;61.34;100814.56;130300;1267;108925;-75
2022/05/06 09:10:33;;;;;;;21.30;19.10;;;;;;;17.33;61.61;100816.63;130328;1267;108958;-75
2022/05/06 09:13:51;;;;;;;24.90;19.70;;;;;;;17.20;62.19;100812.95;130316;1267;108705;-75
2022/05/06 09:16:56;;;;;;;19.10;16.00;;;;;;;17.22;61.91;100817.95;130325;1267;108536;-75
2022/05/06 09:20:08;;;;;;;22.40;19.70;;;;;;;17.41;62.06;100816.22;130323;1267;108662;-75
2022/05/06 09:23:31;;;;;;;22.50;19.20;;;;;;;17.44;61.70;100814.11;130283;1267;108963;-75
2022/05/06 09:26:37;;;;;;;19.40;17.30;;;;;;;17.60;62.03;100812.11;130325;1267;108702;-75
2022/05/06 09:29:44;;;;;;;19.20;17.20;;;;;;;17.75;60.93;100816.33;130292;1267;108721;-73
2022/05/06 09:32:49;;;;;;;20.80;18.40;;;;;;;17.76;61.11;100817.05;130324;1267;108770;-74
2022/05/06 09:35:55;;;;;;;17.80;16.00;;;;;;;17.67;59.76;100822.08;130295;1267;108986;-73
2022/05/06 09:39:06;;;;;;;20.00;17.90;;;;;;;17.73;60.31;100810.80;130324;1267;107673;-73
2022/05/06 09:42:14;;;;;;;21.50;17.10;;;;;;;17.79;58.98;100814.31;130356;1267;108870;-75
2022/05/06 09:45:32;;;;;;;21.20;18.20;;;;;;;17.68;59.51;100812.23;130365;1267;108713;-73
2022/05/06 09:48:56;;;;;;;19.90;17.80;;;;;;;17.84;59.37;100813.33;130405;1267;108971;-76
2022/05/06 09:52:12;;;;;;;20.90;18.40;;;;;;;17.94;59.00;100807.83;130338;1267;107566;-78
2022/05/06 09:55:18;;;;;;;16.50;14.70;;;;;;;18.15;59.36;100806.52;130420;1267;108644;-77
2022/05/06 09:58:23;;;;;;;14.80;12.80;;;;;;;18.35;57.78;100810.69;130266;1268;108723;-76
2022/05/06 10:01:29;;;;;;;13.60;11.20;;;;;;;18.49;56.68;100807.55;130331;1267;108747;-76
2022/05/06 10:04:35;;;;;;;12.30;10.70;;;;;;;18.63;56.13;100811.39;130340;1267;107145;-76
2022/05/06 10:07:44;;;;;;;13.40;10.90;;;;;;;18.78;56.70;100811.28;130417;1267;108767;-78
2022/05/06 10:10:58;;;;;;;13.80;10.50;;;;;;;18.91;56.84;100805.24;130390;1266;109241;-78
2022/05/06 10:14:05;;;;;;;12.20;9.90;;;;;;;19.03;56.20;100807.44;130227;1267;108659;-78
2022/05/06 10:17:12;;;;;;;14.20;12.60;;;;;;;19.13;55.00;100809.80;130406;1267;108717;-78
2022/05/06 10:21:00;;;;;;;15.50;12.40;;;;;;;19.06;54.28;100807.66;130562;1267;108677;-77
2022/05/06 10:24:17;;;;;;;12.10;10.80;;;;;;;19.17;55.01;100805.72;130337;1267;108600;-77
2022/05/06 10:34:11;;;;;;;12.80;10.70;;;;;;;19.14;53.25;100805.60;130305;1267;108752;-77
2022/05/06 10:37:17;;;;;;;12.50;11.20;;;;;;;19.08;53.23;100806.02;130419;1266;108656;-78
2022/05/06 10:40:35;;;;;;;12.00;10.60;;;;;;;19.06;53.21;100804.63;130376;1267;108743;-77
2022/05/06 10:43:54;;;;;;;14.30;10.40;;;;;;;19.04;52.99;100810.10;130570;1267;108845;-77
2022/05/06 10:46:59;;;;;;;13.30;10.90;;;;;;;18.98;51.25;100803.60;130255;1268;108835;-77
2022/05/06 10:50:15;;;;;;;13.00;10.60;;;;;;;18.89;51.45;100795.95;130180;1268;108686;-78
2022/05/06 10:53:35;;;;;;;20.60;12.60;;;;;;;18.95;51.29;100801.45;130173;1268;108875;-78
2022/05/06 10:56:44;;;;;;;12.40;10.90;;;;;;;18.98;51.63;100805.90;130331;1268;108777;-78
2022/05/06 10:59:55;;;;;;;12.50;10.90;;;;;;;19.04;52.45;100798.33;130274;1268;108840;-79
2022/05/06 11:03:01;;;;;;;14.60;11.50;;;;;;;18.93;50.75;100806.39;130272;1268;108599;-78
2022/05/06 11:06:09;;;;;;;10.80;9.70;;;;;;;18.61;51.45;100804.23;130242;1268;108714;-78
2022/05/06 11:09:29;;;;;;;13.50;11.20;;;;;;;18.39;50.41;100796.67;130272;1268;108676;-78
2022/05/06 11:12:37;;;;;;;10.80;9.70;;;;;;;18.26;52.21;100790.06;130315;1268;108934;-78
2022/05/06 11:15:45;;;;;;;11.00;9.30;;;;;;;18.45;51.70;100792.50;130313;1268;108755;-78
2022/05/06 11:18:50;;;;;;;12.00;9.70;;;;;;;18.66;51.72;100794.08;130304;1268;108793;-79
2022/05/06 11:22:09;;;;;;;13.90;11.10;;;;;;;18.71;49.72;100793.10;130284;1268;108721;-78
2022/05/06 11:25:17;;;;;;;10.80;8.70;;;;;;;18.62;50.69;100783.95;130188;1268;108907;-78
2022/05/06 11:28:24;;;;;;;11.70;9.40;;;;;;;18.66;49.72;100786.73;130181;1268;108650;-78
2022/05/06 11:31:30;;;;;;;11.60;9.50;;;;;;;18.69;49.35;100789.25;130245;1268;108695;-78
2022/05/06 11:34:37;;;;;;;14.90;11.70;;;;;;;18.73;49.20;100784.71;130272;1268;108821;-78
2022/05/06 11:37:43;;;;;;;10.60;8.20;;;;;;;18.61;48.82;100786.05;130243;1268;108908;-78
2022/05/06 11:40:49;;;;;;;10.90;8.10;;;;;;;18.47;48.80;100781.27;130292;1268;108703;-77
2022/05/06 11:44:07;;;;;;;16.80;11.00;;;;;;;18.53;49.32;100776.45;130212;1268;108881;-78
2022/05/06 11:47:29;;;;;;;12.70;9.40;;;;;;;18.62;48.81;100775.80;130246;1266;108959;-78
2022/05/06 11:50:35;;;;;;;8.40;6.60;;;;;;;18.70;48.56;100775.62;130270;1268;108788;-78
2022/05/06 11:53:41;;;;;;;11.30;7.90;;;;;;;18.80;48.57;100776.67;130238;1268;108800;-78
2022/05/06 11:56:48;;;;;;;9.00;6.20;;;;;;;18.87;46.87;100768.23;130305;1268;108850;-78
2022/05/06 11:59:53;;;;;;;11.30;7.90;;;;;;;18.81;46.17;100768.89;130391;1268;108751;-78
2022/05/06 12:03:05;;;;;;;8.90;7.20;;;;;;;18.78;46.43;100767.70;130312;1268;109045;-78
2022/05/06 12:06:11;;;;;;;8.90;5.60;;;;;;;18.79;47.84;100762.02;130377;1266;108697;-77
2022/05/06 12:09:17;;;;;;;8.90;6.80;;;;;;;18.85;45.73;100760.60;130327;1267;108714;-77
2022/05/06 12:12:23;;;;;;;10.60;7.50;;;;;;;18.80;44.93;100756.88;130425;1267;108988;-77
2022/05/06 12:15:35;;;;;;;7.60;5.60;;;;;;;18.81;45.66;100750.05;130305;1267;108708;-78
2022/05/06 12:18:51;;;;;;;13.80;9.20;;;;;;;18.95;47.08;100745.25;130375;1267;108760;-77
2022/05/06 12:22:05;;;;;;;9.20;7.70;;;;;;;19.00;46.93;100752.08;130336;1267;108947;-78
2022/05/06 12:25:15;;;;;;;10.40;8.80;;;;;;;18.95;46.94;100754.73;130323;1267;108857;-77
2022/05/06 12:28:21;;;;;;;6.30;4.50;;;;;;;18.97;47.42;100750.04;130448;1267;108768;-78
2022/05/06 12:31:31;;;;;;;8.60;5.10;;;;;;;19.12;47.00;100745.74;130393;1267;107654;-77
2022/05/06 12:34:37;;;;;;;10.40;7.70;;;;;;;19.26;45.67;100747.41;130336;1267;108855;-77
2022/05/06 12:37:56;;;;;;;9.20;6.90;;;;;;;19.28;46.12;100748.61;130340;1267;108774;-77
2022/05/06 12:41:02;;;;;;;9.30;6.50;;;;;;;19.34;46.78;100738.48;130347;1267;109094;-78
2022/05/06 12:44:23;;;;;;;8.80;6.50;;;;;;;19.40;44.76;100744.43;130337;1267;108806;-77
2022/05/06 12:50:56;;;;;;;9.70;6.80;;;;;;;19.52;44.65;100749.41;130354;1267;108216;-77
2022/05/06 12:54:01;;;;;;;10.30;7.80;;;;;;;19.49;44.05;100751.52;130326;1267;108879;-78
2022/05/06 12:57:08;;;;;;;10.60;6.70;;;;;;;19.42;44.92;100745.90;130443;1266;108882;-78
2022/05/06 13:00:16;;;;;;;11.20;7.00;;;;;;;19.42;45.09;100738.49;130373;1267;109002;-77
2022/05/06 13:03:21;;;;;;;9.40;7.30;;;;;;;19.38;43.84;100739.75;130395;1267;108915;-78
2022/05/06 13:06:28;;;;;;;9.80;6.30;;;;;;;19.34;45.12;100735.35;130435;1267;108861;-76
2022/05/06 13:09:33;;;;;;;8.50;6.00;;;;;;;19.34;44.15;100734.95;130135;1267;108724;-76
2022/05/06 13:12:39;;;;;;;11.30;7.80;;;;;;;19.21;41.51;100742.90;130332;1267;108970;-77
2022/05/06 13:15:45;;;;;;;9.30;6.90;;;;;;;19.07;42.36;100741.34;130325;1267;108928;-76
2022/05/06 13:18:52;;;;;;;9.00;5.30;;;;;;;18.96;40.77;100738.39;130345;1267;108895;-77
2022/05/06 13:21:58;;;;;;;6.90;5.30;;;;;;;18.97;40.71;100743.60;130340;1267;109106;-76
2022/05/06 13:25:05;;;;;;;10.80;4.60;;;;;;;18.99;42.46;100730.50;130358;1267;107219;-76
2022/05/06 13:28:11;;;;;;;6.80;4.70;;;;;;;19.07;42.33;100732.28;130326;1267;108791;-76
2022/05/06 13:31:17;;;;;;;7.80;5.20;;;;;;;19.10;39.12;100732.92;130348;1267;108906;-76
2022/05/06 13:34:23;;;;;;;7.60;5.00;;;;;;;19.00;39.05;100729.15;130337;1266;108723;-76
2022/05/06 13:37:28;;;;;;;6.50;4.00;;;;;;;18.98;41.05;100726.02;130400;1267;107675;-77
2022/05/06 13:40:34;;;;;;;4.80;4.00;;;;;;;19.08;41.53;100724.50;130396;1266;109051;-78
2022/05/06 13:43:40;;;;;;;7.90;4.40;;;;;;;19.15;40.02;100726.22;130433;1267;108739;-76
2022/05/06 13:46:46;;;;;;;6.10;4.10;;;;;;;19.14;38.01;100730.36;130408;1267;107633;-76
2022/05/06 13:49:53;;;;;;;7.00;4.00;;;;;;;19.02;36.82;100732.36;130394;1267;108873;-76
2022/05/06 13:52:59;;;;;;;6.00;3.60;;;;;;;18.92;35.83;100726.91;130433;1266;108719;-76
2022/05/06 13:59:29;;;;;;;5.20;2.90;;;;;;;18.87;37.48;100721.38;130325;1267;108553;-76
2022/05/06 14:02:34;;;;;;;5.80;3.50;;;;;;;18.94;37.87;100714.52;130381;1267;108685;-76
2022/05/06 14:05:41;;;;;;;6.90;4.10;;;;;;;18.96;36.54;100715.01;130455;1267;108647;-79
2022/05/06 14:08:47;;;;;;;8.40;4.30;;;;;;;19.00;37.40;100720.27;130401;1267;109187;-77
2022/05/06 14:11:53;;;;;;;6.80;4.10;;;;;;;18.94;37.11;100716.98;130367;1267;107193;-77
2022/05/06 14:14:59;;;;;;;13.70;5.40;;;;;;;19.01;38.86;100720.45;130406;1267;108878;-78
2022/05/06 14:18:05;;;;;;;8.10;4.60;;;;;;;19.04;38.70;100713.45;130431;1267;108864;-78
2022/05/06 14:21:11;;;;;;;6.70;4.60;;;;;;;19.07;39.37;100711.19;130443;1267;108849;-78
2022/05/06 14:24:17;;;;;;;10.80;5.70;;;;;;;19.05;37.97;100718.77;130439;1267;108795;-78
2022/05/06 14:27:23;;;;;;;8.80;5.40;;;;;;;18.88;38.37;100722.73;130385;1266;108892;-78
2022/05/06 14:30:32;;;;;;;7.90;5.30;;;;;;;18.79;38.30;100716.77;130351;1267;108924;-76
2022/05/06 14:33:38;;;;;;;8.30;4.70;;;;;;;18.72;37.77;100722.69;130401;1265;108884;-77
2022/05/06 14:36:43;;;;;;;6.50;3.90;;;;;;;18.64;36.35;100720.84;130525;1267;107615;-76
2022/05/06 14:39:50;;;;;;;4.40;3.10;;;;;;;18.57;36.12;100724.23;130469;1266;108788;-78
2022/05/06 14:42:55;;;;;;;4.40;2.90;;;;;;;18.56;36.67;100724.67;130402;1266;109058;-76
2022/05/06 14:46:01;;;;;;;5.40;3.20;;;;;;;18.58;36.02;100728.81;130395;1267;109509;-77
2022/05/06 14:49:07;;;;;;;7.90;3.30;;;;;;;18.52;35.27;100726.84;130503;1266;108677;-77